Flight Track Log - Related Links

Times and Time Zones

All times are in EDT time to prevent confusion due to time zone crossing. See the TRS607 flight status page for this flight to view local times or setup timezone preferences in your user account.

Time Position Orientation Groundspeed Altitude Reporting Facility
EDT Latitude Longitude Course Direction KTS MPH feet Rate Location/Type
Tue 09:10:45 PM 33.6333 -84.4000 107° East 168 193 2,300  Level Atlanta TRACON
Tue 09:11:45 PM 33.6167 -84.3333 107° East 217 250 3,700 1,800 Climbing Atlanta TRACON
Tue 09:12:45 PM 33.5833 -84.2833 129° Southeast 266 306 5,900 2,200 Climbing Atlanta TRACON
Tue 09:13:45 PM 33.5000 -84.2833 180° South 280 322 8,100 1,841 Climbing Atlanta TRACON
Tue 09:15:41 PM 33.3389 -84.2650 175° South 317 365 11,300 1,841 Climbing Atlanta Center
Tue 09:16:41 PM 33.2367 -84.2375 167° South 362 417 13,500 2,150 Climbing Atlanta Center
Tue 09:17:41 PM 33.1325 -84.2125 169° South 380 437 15,600 1,950 Climbing Atlanta Center
Tue 09:18:41 PM 33.0281 -84.1800 165° South 392 451 17,400 1,850 Climbing Atlanta Center
Tue 09:19:41 PM 32.9175 -84.1428 164° South 397 457 19,300 2,000 Climbing Atlanta Center
Tue 09:20:41 PM 32.8047 -84.1006 163° South 408 470 21,400 2,050 Climbing Atlanta Center
Tue 09:21:41 PM 32.6922 -84.0461 158° South 429 494 23,400 1,850 Climbing Atlanta Center
Tue 09:22:41 PM 32.5731 -83.9994 162° South 440 506 25,100 1,650 Climbing Atlanta Center
Tue 09:23:41 PM 32.4542 -83.9528 162° South 445 512 26,700 1,350 Climbing Atlanta Center
Tue 09:24:41 PM 32.3331 -83.9036 161° South 455 524 27,800 1,100 Climbing Atlanta Center
Tue 09:25:41 PM 32.2078 -83.8497 160° South 468 539 28,900 1,140 Climbing Atlanta Center
Tue 09:26:21 PM 32.1236 -83.8150 161° South 467 537 29,700 1,333 Climbing Jacksonville Center
Tue 09:27:20 PM 31.9964 -83.7647 161° South 467 537 31,100 1,300 Climbing Jacksonville Center
Tue 09:28:21 PM 31.8736 -83.7144 161° South 467 537 32,300 1,050 Climbing Jacksonville Center
Tue 09:29:20 PM 31.7611 -83.6697 161° South 467 537 33,200 1,050 Climbing Jacksonville Center
Tue 09:30:21 PM 31.6153 -83.6075 160° South 485 558 34,400 893 Climbing Jacksonville Center
Tue 09:31:21 PM 31.5028 -83.5650 162° South 485 558 35,000 303 Climbing Jacksonville Center
Tue 09:32:20 PM 31.3800 -83.5181 162° South 480 552 35,000  Level Jacksonville Center
Tue 09:33:20 PM 31.2550 -83.4686 161° South 480 552 35,000  Level Jacksonville Center
Tue 09:34:20 PM 31.1297 -83.4169 161° South 480 552 35,000  Level Jacksonville Center
Tue 09:35:20 PM 31.0006 -83.3675 162° South 480 552 35,000  Level Jacksonville Center
Tue 09:36:20 PM 30.8733 -83.3186 162° South 480 552 35,000  Level Jacksonville Center
Tue 09:37:20 PM 30.7525 -83.2647 159° South 475 547 35,000  Level Jacksonville Center
Tue 09:38:20 PM 30.6272 -83.2017 157° South 480 552 35,000  Level Jacksonville Center
Tue 09:39:20 PM 30.5022 -83.1408 157° South 486 559 35,000  Level Jacksonville Center
Tue 09:40:21 PM 30.3811 -83.0781 156° South 486 559 35,000  Level Jacksonville Center
Tue 09:41:20 PM 30.2561 -83.0153 157° South 481 554 35,000  Level Jacksonville Center
Tue 09:42:21 PM 30.1308 -82.9525 157° South 481 554 35,000  Level Jacksonville Center
Tue 09:43:20 PM 29.9992 -82.9022 162° South 486 559 35,000  Level Jacksonville Center
Tue 09:44:20 PM 29.8678 -82.8639 166° South 491 565 35,000  Level Jacksonville Center
Tue 09:45:20 PM 29.7342 -82.8256 166° South 491 565 35,000  Level Jacksonville Center
Tue 09:46:21 PM 29.6006 -82.7803 164° South 491 565 35,000  Level Jacksonville Center
Tue 09:47:20 PM 29.4522 -82.7353 165° South 491 565 35,000  Level Jacksonville Center
Tue 09:48:20 PM 29.3206 -82.6950 165° South 491 565 35,000  Level Jacksonville Center
Tue 09:49:20 PM 29.1850 -82.6522 165° South 491 565 35,000  Level Jacksonville Center
Tue 09:50:20 PM 29.0492 -82.6122 166° South 491 565 35,000  Level Jacksonville Center
Tue 09:51:20 PM 28.9133 -82.5722 166° South 496 571 35,000  Level Jacksonville Center
Tue 09:52:20 PM 28.7775 -82.5303 165° South 496 571 35,000  Level Jacksonville Center
Tue 09:53:20 PM 28.6417 -82.4906 166° South 496 571 35,000  Level Jacksonville Center
Tue 09:54:20 PM 28.5061 -82.4508 166° South 496 571 35,000  Level Jacksonville Center
Tue 09:56:39 PM 28.1872 -82.3539 165° South 518 596 35,000  Level Miami Center
Tue 09:57:40 PM 28.0428 -82.3139 166° South 518 596 35,000  Level Miami Center
Tue 09:58:39 PM 27.9108 -82.2675 163° South 513 590 35,000  Level Miami Center
Tue 09:59:39 PM 27.7894 -82.2244 163° South 507 583 35,000 -780 Level Miami Center
Tue 10:00:42 PM 27.6369 -82.1703 163° South 512 589 33,400 -1,537 Descending Miami Center
Tue 10:01:40 PM 27.5031 -82.1242 163° South 512 589 31,900 -1,881 Descending Miami Center
Tue 10:02:40 PM 27.3692 -82.0783 163° South 504 580 29,700 -2,100 Descending Miami Center
Tue 10:03:40 PM 27.2536 -82.0406 164° South 490 564 27,700 -2,200 Descending Miami Center
Tue 10:04:40 PM 27.1281 -81.9931 161° South 479 551 25,300 -2,300 Descending Miami Center
Tue 10:05:40 PM 27.0158 -81.9158 148° Southeast 440 506 23,100 -2,083 Descending Miami Center
Tue 10:06:41 PM 26.9139 -81.8461 149° Southeast 435 501 21,100 -2,000 Descending Miami Center
Tue 10:07:40 PM 26.8139 -81.7767 148° Southeast 428 493 19,100 -1,050 Descending Miami Center
Tue 10:08:41 PM 26.7225 -81.7056 145° Southeast 415 478 19,000 -49 Descending Miami Center
Tue 10:09:42 PM 26.7033 -81.5861 100° East 367 422 19,000 -900 Level Miami Center
Tue 10:10:41 PM 26.7300 -81.4711 75° East 360 414 17,200 -1,550 Descending Miami Center
Tue 10:11:42 PM 26.7544 -81.3581 76° East 365 420 15,900 -1,261 Descending Miami Center
Tue 10:12:40 PM 26.7786 -81.2567 75° East 370 426 14,700 -1,169 Descending Miami Center
Tue 10:13:40 PM 26.8025 -81.1481 76° East 370 426 13,600 -1,438 Descending Miami Center
Tue 10:14:41 PM 26.8228 -81.0278 79° East 359 413 11,800 -1,400 Descending Miami Center
Tue 10:15:40 PM 26.8342 -80.9258 83° East 346 398 10,800 -908 Descending Miami Center
Tue 10:16:40 PM 26.8325 -80.8350 91° East 309 356 10,000 -492 Descending Miami Center
Tue 10:17:42 PM 26.8031 -80.7572 113° Southeast 287 330 9,800 -800 Descending Miami Center
Tue 10:18:40 PM 26.7658 -80.6653 114° Southeast 287 330 8,400 -1,271 Descending Miami Center
Tue 10:19:40 PM 26.7367 -80.5853 112° Southeast 287 330 7,300 -1,289 Descending Miami Center
Tue 10:20:41 PM 26.7075 -80.5053 112° Southeast 274 315 5,800 -1,091 Descending Miami Center
Tue 10:21:41 PM 26.6928 -80.4211 101° East 274 315 5,100 -992 Descending Miami Center
Tue 10:22:42 PM 26.6928 -80.3375 90° East 274 315 3,800 -1,261 Descending Miami Center
Tue 10:23:40 PM 26.6883 -80.2631 94° East 256 295 2,600 -1,241 Descending Miami Center
Tue 10:25:00 PM 26.5986 -80.1771 53° Northeast  Level FlightAware Approximate
Tue 10:32:00 PM 26.6667 -80.0833 50° Northeast  Level FlightAware Approximate
Tue 10:33:00 PM 26.6832 -80.0956 50° Northeast  Level Estimated
Tue 10:34:00 PM 26.6832 -80.0956 50° Northeast  Level Estimated
Tue 10:35:00 PM 26.6832 -80.0956 50° Northeast  Level Estimated

Login

Don't have an account? Register now (free) for customized features, flight alerts, and more!